createdAt,value
2023-05-23T05:01:54.086Z,14.20
2023-05-23T05:04:23.681Z,14.21
2023-05-23T05:06:53.707Z,14.23
2023-05-23T05:09:22.422Z,14.21
2023-05-23T05:11:50.656Z,14.22
2023-05-23T05:14:19.621Z,14.20
2023-05-23T05:16:47.449Z,14.22
2023-05-23T05:19:16.167Z,14.25
2023-05-23T05:21:42.776Z,14.28
2023-05-23T05:24:10.098Z,14.30
2023-05-23T05:26:37.073Z,14.25
2023-05-23T05:29:04.807Z,14.25
2023-05-23T05:31:32.867Z,14.27
2023-05-23T05:34:00.186Z,14.27
2023-05-23T05:36:27.328Z,14.24
2023-05-23T05:38:55.356Z,14.23
2023-05-23T05:41:22.290Z,14.23
2023-05-23T05:43:51.415Z,14.18
2023-05-23T05:46:18.250Z,14.21
2023-05-23T05:48:46.668Z,14.19
2023-05-23T05:51:14.186Z,14.21
2023-05-23T05:53:42.433Z,14.27
2023-05-23T05:56:09.411Z,14.28
2023-05-23T05:58:38.933Z,14.33
2023-05-23T06:01:07.923Z,14.28
2023-05-23T06:03:35.522Z,14.27
2023-05-23T06:06:02.262Z,14.31
2023-05-23T06:08:30.057Z,14.23
2023-05-23T06:10:56.947Z,14.24
2023-05-23T06:13:26.111Z,14.26
2023-05-23T06:15:54.005Z,14.26
2023-05-23T06:18:21.838Z,14.24
2023-05-23T06:20:50.772Z,14.22
2023-05-23T06:23:19.305Z,14.24
2023-05-23T06:25:46.966Z,14.24
2023-05-23T06:28:14.272Z,14.20
2023-05-23T06:30:41.234Z,14.10
2023-05-23T06:33:08.904Z,14.03
2023-05-23T06:35:35.875Z,13.96
2023-05-23T06:38:03.186Z,13.91
2023-05-23T06:40:30.630Z,13.91
2023-05-23T06:42:57.681Z,13.86
2023-05-23T06:45:47.089Z,13.84
2023-05-23T06:48:14.393Z,13.86
2023-05-23T06:50:42.205Z,13.81
2023-05-23T06:53:11.110Z,13.79
2023-05-23T06:55:37.884Z,13.74
2023-05-23T06:58:07.349Z,13.69
2023-05-23T07:00:36.232Z,13.65
2023-05-23T07:03:21.429Z,13.62
2023-05-23T07:05:49.098Z,13.66
2023-05-23T07:08:17.593Z,13.58
2023-05-23T07:10:55.870Z,13.57
2023-05-23T07:13:31.337Z,13.52
2023-05-23T07:15:59.216Z,13.51
2023-05-23T07:18:27.089Z,13.44
2023-05-23T07:20:54.744Z,13.35
2023-05-23T07:23:24.614Z,13.35
2023-05-23T07:26:01.954Z,13.36
2023-05-23T07:28:42.189Z,13.44
2023-05-23T07:31:09.943Z,13.43
2023-05-23T07:33:38.473Z,13.37
2023-05-23T07:36:07.556Z,13.30
2023-05-23T07:38:34.646Z,13.27
2023-05-23T07:41:10.797Z,13.23
2023-05-23T07:43:59.048Z,13.09
2023-05-23T07:46:26.092Z,13.05
2023-05-23T07:48:53.701Z,13.07
2023-05-23T07:51:21.500Z,13.07
2023-05-23T07:53:50.849Z,13.00
2023-05-23T07:56:19.490Z,13.02
2023-05-23T07:58:46.954Z,13.01
2023-05-23T08:01:14.285Z,13.01
2023-05-23T08:04:04.277Z,12.99
2023-05-23T08:07:04.236Z,13.02
2023-05-23T08:09:42.058Z,13.02
2023-05-23T08:12:12.355Z,12.99
2023-05-23T08:14:50.455Z,13.01
2023-05-23T08:17:32.719Z,12.95
2023-05-23T08:20:01.218Z,12.88
2023-05-23T08:22:30.158Z,12.84
2023-05-23T08:24:57.542Z,12.83
2023-05-23T08:27:27.177Z,12.89
2023-05-23T08:29:58.427Z,12.91
2023-05-23T08:32:25.797Z,12.95
2023-05-23T08:34:52.876Z,12.99
2023-05-23T08:37:20.121Z,13.05
2023-05-23T08:39:46.761Z,13.08
2023-05-23T08:42:40.501Z,13.11
2023-05-23T08:45:09.643Z,13.09
2023-05-23T08:47:47.636Z,13.10
2023-05-23T08:50:20.122Z,13.11
2023-05-23T08:52:56.686Z,13.20
2023-05-23T08:55:27.241Z,13.30
2023-05-23T08:57:56.287Z,13.29
2023-05-23T09:00:43.381Z,13.39
2023-05-23T09:03:12.675Z,13.45
2023-05-23T09:05:50.442Z,13.43
2023-05-23T09:08:20.938Z,13.41
2023-05-23T09:10:51.714Z,13.39
2023-05-23T09:13:22.854Z,13.33
2023-05-23T09:16:00.473Z,13.35
2023-05-23T09:18:41.791Z,13.42
2023-05-23T09:21:11.414Z,13.40
2023-05-23T09:23:44.987Z,13.38
2023-05-23T09:26:14.669Z,13.36
2023-05-23T09:28:43.460Z,13.32
2023-05-23T09:31:11.369Z,13.34
2023-05-23T09:33:47.938Z,13.35
2023-05-23T09:36:16.432Z,13.33
2023-05-23T09:38:46.013Z,13.29
2023-05-23T09:41:14.147Z,13.15
2023-05-23T09:43:56.872Z,13.09
2023-05-23T09:46:29.737Z,13.06
2023-05-23T09:49:04.815Z,13.01
2023-05-23T09:51:34.776Z,12.97
2023-05-23T09:54:07.910Z,12.91
2023-05-23T09:56:45.047Z,12.86
2023-05-23T09:59:16.143Z,12.88
2023-05-23T10:01:48.204Z,12.85
2023-05-23T10:04:20.567Z,12.76
2023-05-23T10:06:54.980Z,12.73
2023-05-23T10:09:25.013Z,12.72
2023-05-23T10:12:16.312Z,12.65
2023-05-23T10:14:51.001Z,12.56
2023-05-23T10:17:27.269Z,12.52
2023-05-23T10:20:01.084Z,12.54
2023-05-23T10:22:28.729Z,12.55
2023-05-23T10:24:56.456Z,12.48
2023-05-23T10:27:23.907Z,12.45
2023-05-23T10:29:51.662Z,12.51
2023-05-23T10:32:19.383Z,12.50
2023-05-23T10:35:04.723Z,12.42
2023-05-23T10:37:49.133Z,12.35
2023-05-23T10:40:33.315Z,12.33
2023-05-23T10:43:05.984Z,12.38
2023-05-23T10:45:44.174Z,12.34
2023-05-23T10:48:37.350Z,12.42
2023-05-23T10:51:08.536Z,12.50
2023-05-23T10:53:37.675Z,12.39
2023-05-23T10:56:07.327Z,12.37
2023-05-23T10:58:37.126Z,12.33
2023-05-23T11:01:15.836Z,12.45
2023-05-23T11:03:49.939Z,12.47
2023-05-23T11:06:39.426Z,12.55
2023-05-23T11:09:11.729Z,12.67
2023-05-23T11:11:54.180Z,12.87
2023-05-23T11:14:31.063Z,12.99
2023-05-23T11:16:58.532Z,13.15
2023-05-23T11:19:30.710Z,13.27
2023-05-23T11:22:02.877Z,13.33
2023-05-23T11:24:47.585Z,13.49
2023-05-23T11:27:14.899Z,13.66
2023-05-23T11:29:41.566Z,13.78
2023-05-23T11:32:17.321Z,14.00
2023-05-23T11:34:44.587Z,14.22
2023-05-23T11:37:12.347Z,14.29
2023-05-23T11:39:40.455Z,14.33
2023-05-23T11:42:07.805Z,14.32
2023-05-23T11:44:34.492Z,14.41
2023-05-23T11:47:07.212Z,14.61
2023-05-23T11:49:38.320Z,14.74
2023-05-23T11:52:09.547Z,14.71
2023-05-23T11:54:36.437Z,14.59
2023-05-23T11:57:03.920Z,14.53
2023-05-23T11:59:31.330Z,14.56
2023-05-23T12:01:57.946Z,14.67
2023-05-23T12:04:26.672Z,14.62
2023-05-23T12:06:53.345Z,14.57
2023-05-23T12:09:21.051Z,14.51
2023-05-23T12:11:49.228Z,14.38
2023-05-23T12:14:18.248Z,14.39
2023-05-23T12:16:47.211Z,14.39
2023-05-23T12:19:17.456Z,14.56
2023-05-23T12:21:48.464Z,14.82
2023-05-23T12:24:24.652Z,15.08
2023-05-23T12:26:54.025Z,15.24
2023-05-23T12:29:22.529Z,15.29
2023-05-23T12:31:50.684Z,15.36
2023-05-23T12:34:19.901Z,15.21
2023-05-23T12:36:50.731Z,15.31
2023-05-23T12:39:28.751Z,15.40
2023-05-23T12:41:58.696Z,15.31
2023-05-23T12:44:31.206Z,15.22
2023-05-23T12:46:58.068Z,15.27
2023-05-23T12:49:25.451Z,15.40
2023-05-23T12:51:52.173Z,15.67
2023-05-23T12:54:19.672Z,15.83
2023-05-23T12:56:46.335Z,15.97
2023-05-23T12:59:13.673Z,16.14
2023-05-23T13:01:40.413Z,16.30
2023-05-23T13:04:07.798Z,16.31
2023-05-23T13:06:34.503Z,16.11
2023-05-23T13:09:02.226Z,16.29
2023-05-23T13:11:28.940Z,16.33
2023-05-23T13:13:56.219Z,16.48
2023-05-23T13:16:23.138Z,16.55
2023-05-23T13:18:50.539Z,16.59
2023-05-23T13:21:17.381Z,16.62
2023-05-23T13:23:44.700Z,16.64
2023-05-23T13:26:11.444Z,16.59
2023-05-23T13:28:38.686Z,16.38
2023-05-23T13:31:05.984Z,16.30
2023-05-23T13:33:33.315Z,16.21
2023-05-23T13:36:00.008Z,16.18
2023-05-23T13:38:28.008Z,16.21
2023-05-23T13:40:54.891Z,16.12
2023-05-23T13:43:22.352Z,16.10
2023-05-23T13:45:49.105Z,16.13
2023-05-23T13:48:16.406Z,16.11
2023-05-23T13:50:43.660Z,16.04
2023-05-23T13:53:17.494Z,16.12
2023-05-23T13:55:47.284Z,16.38
2023-05-23T13:58:14.272Z,16.52
2023-05-23T14:00:41.211Z,16.57
2023-05-23T14:03:09.282Z,16.28
2023-05-23T14:05:36.733Z,16.08
2023-05-23T14:08:04.794Z,16.07
2023-05-23T14:10:33.295Z,15.99
2023-05-23T14:13:00.793Z,16.15
2023-05-23T14:15:28.563Z,16.17
2023-05-23T14:17:55.853Z,16.21
2023-05-23T14:20:23.956Z,16.33
2023-05-23T14:22:51.550Z,16.45
2023-05-23T14:25:18.662Z,16.59
2023-05-23T14:27:46.027Z,16.59
2023-05-23T14:30:13.032Z,16.54
2023-05-23T14:32:40.630Z,16.53
2023-05-23T14:35:09.602Z,16.55
2023-05-23T14:37:37.241Z,16.52
2023-05-23T14:43:16.909Z,16.70
2023-05-23T14:54:10.952Z,16.55
2023-05-23T14:57:04.302Z,16.39
2023-05-23T14:59:31.867Z,16.25
2023-05-23T15:01:59.151Z,16.31
2023-05-23T15:04:26.376Z,16.27
2023-05-23T15:06:53.747Z,16.24
2023-05-23T15:09:20.522Z,16.32
2023-05-23T15:11:49.658Z,16.23
2023-05-23T15:14:16.749Z,16.19
2023-05-23T15:16:45.551Z,16.17
2023-05-23T15:19:12.305Z,16.15
2023-05-23T15:21:42.284Z,15.96
2023-05-23T15:24:16.651Z,15.94
2023-05-23T15:26:43.949Z,15.91
2023-05-23T15:29:10.854Z,15.99
2023-05-23T15:31:38.493Z,16.00
2023-05-23T15:34:05.176Z,16.04
2023-05-23T15:36:32.649Z,16.16
2023-05-23T15:38:59.630Z,16.23
2023-05-23T15:41:26.874Z,16.27
2023-05-23T15:43:53.862Z,16.02
2023-05-23T15:46:21.364Z,15.96
2023-05-23T15:48:48.143Z,15.88
2023-05-23T15:51:15.409Z,15.86
2023-05-23T15:54:00.153Z,15.90
2023-05-23T15:56:28.295Z,15.95
2023-05-23T15:58:55.533Z,16.05
2023-05-23T16:01:22.852Z,15.93
2023-05-23T16:03:50.118Z,15.89
2023-05-23T16:06:17.563Z,15.87
2023-05-23T16:08:44.332Z,15.88
2023-05-23T16:11:11.609Z,15.89
2023-05-23T16:13:38.282Z,15.80
2023-05-23T16:16:05.885Z,15.77
2023-05-23T16:18:32.560Z,15.81
2023-05-23T16:20:59.941Z,15.73
2023-05-23T16:23:26.692Z,15.76
2023-05-23T16:25:54.069Z,15.83
2023-05-23T16:28:21.568Z,15.88
2023-05-23T16:30:49.113Z,15.85
2023-05-23T16:33:16.058Z,15.74
2023-05-23T16:35:43.549Z,15.76
2023-05-23T16:38:10.455Z,15.74
2023-05-23T16:40:37.784Z,15.70
2023-05-23T16:43:04.669Z,15.57
2023-05-23T16:45:31.869Z,15.53
2023-05-23T16:48:00.763Z,15.45
2023-05-23T16:50:28.127Z,15.45
2023-05-23T16:52:55.392Z,15.38
2023-05-23T16:55:23.297Z,15.25
2023-05-23T16:57:49.919Z,15.19
2023-05-23T17:00:17.627Z,15.08
2023-05-23T17:02:44.335Z,15.05
2023-05-23T17:05:11.712Z,14.97
2023-05-23T17:07:38.410Z,14.89
2023-05-23T17:10:06.122Z,14.85
2023-05-23T17:12:32.720Z,14.84
2023-05-23T17:14:59.762Z,14.80
2023-05-23T17:17:26.456Z,14.69
2023-05-23T17:19:53.547Z,14.55
2023-05-23T17:22:20.140Z,14.47
2023-05-23T17:24:47.284Z,14.36
2023-05-23T17:27:14.222Z,14.27
2023-05-23T17:29:41.238Z,14.18
2023-05-23T17:32:08.692Z,14.08
2023-05-23T17:34:35.795Z,14.01
2023-05-23T17:37:02.442Z,14.01
2023-05-23T17:39:29.635Z,13.99
2023-05-23T17:41:56.216Z,13.98
2023-05-23T17:44:23.198Z,14.01
2023-05-23T17:46:49.855Z,13.98
2023-05-23T17:49:17.757Z,13.94
2023-05-23T17:51:44.636Z,13.85
2023-05-23T17:54:12.367Z,13.71
2023-05-23T17:56:38.999Z,13.63
2023-05-23T17:59:06.389Z,13.63
2023-05-23T18:01:34.245Z,13.49
2023-05-23T18:04:02.310Z,13.45
2023-05-23T18:06:29.024Z,13.42
2023-05-23T18:08:56.363Z,13.40
2023-05-23T18:11:24.254Z,13.28
2023-05-23T18:13:51.689Z,13.22
2023-05-23T18:16:18.360Z,13.16
2023-05-23T18:18:45.764Z,13.14
2023-05-23T18:21:12.430Z,13.08
2023-05-23T18:23:39.706Z,12.96
2023-05-23T18:26:06.383Z,12.91
2023-05-23T18:28:33.606Z,12.89
2023-05-23T18:31:01.541Z,12.89
2023-05-23T18:33:28.906Z,12.87
2023-05-23T18:35:55.778Z,12.81
2023-05-23T18:38:23.115Z,12.75
2023-05-23T18:40:49.852Z,12.65
2023-05-23T18:43:17.830Z,12.59
2023-05-23T18:45:44.813Z,12.55
2023-05-23T18:48:12.189Z,12.48
2023-05-23T18:50:38.971Z,12.42
2023-05-23T18:53:06.338Z,12.36
2023-05-23T18:55:33.591Z,12.32
2023-05-23T18:58:00.482Z,12.22
2023-05-23T19:00:27.788Z,12.16
2023-05-23T19:02:54.596Z,12.10
2023-05-23T19:05:22.148Z,12.05
2023-05-23T19:07:48.731Z,11.99
2023-05-23T19:10:16.097Z,11.90
2023-05-23T19:12:42.699Z,11.88
2023-05-23T19:15:10.638Z,11.82
2023-05-23T19:17:37.998Z,11.79
2023-05-23T19:20:05.843Z,11.74
2023-05-23T19:22:49.771Z,11.71
2023-05-23T19:25:17.709Z,11.60
2023-05-23T19:27:44.311Z,11.55
2023-05-23T19:30:12.080Z,11.50
2023-05-23T19:32:38.794Z,11.46
2023-05-23T19:35:06.525Z,11.41
2023-05-23T19:37:33.393Z,11.36
2023-05-23T19:40:01.988Z,11.31
2023-05-23T19:42:28.637Z,11.24
2023-05-23T19:44:55.863Z,11.20
2023-05-23T19:47:22.557Z,11.16
2023-05-23T19:49:49.881Z,11.11
2023-05-23T19:52:16.703Z,11.08
2023-05-23T19:54:43.899Z,11.01
2023-05-23T19:57:10.522Z,10.93
2023-05-23T19:59:38.174Z,10.82
2023-05-23T20:02:04.877Z,10.73
2023-05-23T20:04:32.193Z,10.66
2023-05-23T20:06:59.646Z,10.62
2023-05-23T20:09:26.924Z,10.58
2023-05-23T20:11:53.566Z,10.51
2023-05-23T20:14:20.923Z,10.47
2023-05-23T20:16:47.550Z,10.45
2023-05-23T20:19:14.926Z,10.43
2023-05-23T20:21:41.819Z,10.40
2023-05-23T20:24:09.224Z,10.36
2023-05-23T20:26:35.926Z,10.31
2023-05-23T20:29:03.282Z,10.27
